sensor_id;sensor_type;location;lat;lon;timestamp;pressure;altitude;pressure_sealevel;temperature;humidity
71948;BME280;63257;55.082;38.772;2024-01-30T00:01:41;100950.72;;;-2.43;90.13
71948;BME280;63257;55.082;38.772;2024-01-30T00:04:07;100967.00;;;-2.48;89.42
71948;BME280;63257;55.082;38.772;2024-01-30T00:06:33;100981.94;;;-2.32;89.21
71948;BME280;63257;55.082;38.772;2024-01-30T00:08:59;100961.25;;;-2.32;89.10
71948;BME280;63257;55.082;38.772;2024-01-30T00:11:25;100961.13;;;-2.36;88.94
71948;BME280;63257;55.082;38.772;2024-01-30T00:13:52;100942.91;;;-2.47;89.33
71948;BME280;63257;55.082;38.772;2024-01-30T00:16:24;100946.28;;;-2.51;89.56
71948;BME280;63257;55.082;38.772;2024-01-30T00:18:51;100967.03;;;-2.45;89.99
71948;BME280;63257;55.082;38.772;2024-01-30T00:21:18;100972.22;;;-2.45;90.08
71948;BME280;63257;55.082;38.772;2024-01-30T00:23:43;100970.66;;;-2.35;90.01
71948;BME280;63257;55.082;38.772;2024-01-30T00:26:09;100955.94;;;-2.38;89.71
71948;BME280;63257;55.082;38.772;2024-01-30T00:28:40;100965.59;;;-2.29;90.00
71948;BME280;63257;55.082;38.772;2024-01-30T00:31:06;100953.38;;;-2.38;90.22
71948;BME280;63257;55.082;38.772;2024-01-30T00:33:32;100913.69;;;-2.42;90.80
71948;BME280;63257;55.082;38.772;2024-01-30T00:35:58;100914.56;;;-2.38;90.14
71948;BME280;63257;55.082;38.772;2024-01-30T00:38:24;100926.72;;;-2.32;90.54
71948;BME280;63257;55.082;38.772;2024-01-30T00:40:50;100911.94;;;-2.41;90.88
71948;BME280;63257;55.082;38.772;2024-01-30T00:43:16;100912.06;;;-2.35;90.67
71948;BME280;63257;55.082;38.772;2024-01-30T00:45:45;100888.53;;;-2.50;91.06
71948;BME280;63257;55.082;38.772;2024-01-30T00:48:11;100879.09;;;-2.48;91.31
71948;BME280;63257;55.082;38.772;2024-01-30T00:50:37;100854.06;;;-2.52;91.51
71948;BME280;63257;55.082;38.772;2024-01-30T00:53:02;100896.41;;;-2.44;91.65
71948;BME280;63257;55.082;38.772;2024-01-30T00:55:28;100892.94;;;-2.45;91.66
71948;BME280;63257;55.082;38.772;2024-01-30T00:57:54;100869.44;;;-2.60;91.75
71948;BME280;63257;55.082;38.772;2024-01-30T01:00:20;100888.63;;;-2.46;91.96
71948;BME280;63257;55.082;38.772;2024-01-30T01:02:46;100850.44;;;-2.64;92.51
71948;BME280;63257;55.082;38.772;2024-01-30T01:05:13;100839.22;;;-2.63;92.49
71948;BME280;63257;55.082;38.772;2024-01-30T01:07:39;100867.63;;;-2.66;92.18
71948;BME280;63257;55.082;38.772;2024-01-30T01:10:06;100895.44;;;-2.51;92.30
71948;BME280;63257;55.082;38.772;2024-01-30T01:12:35;100842.34;;;-2.85;92.68
71948;BME280;63257;55.082;38.772;2024-01-30T01:15:01;100888.47;;;-2.55;92.30
71948;BME280;63257;55.082;38.772;2024-01-30T01:17:30;100872.84;;;-2.63;92.36
71948;BME280;63257;55.082;38.772;2024-01-30T01:19:56;100870.47;;;-2.49;92.72
71948;BME280;63257;55.082;38.772;2024-01-30T01:22:21;100884.28;;;-2.48;92.53
71948;BME280;63257;55.082;38.772;2024-01-30T01:24:48;100869.41;;;-2.62;92.58
71948;BME280;63257;55.082;38.772;2024-01-30T01:27:14;100886.88;;;-2.47;92.81
71948;BME280;63257;55.082;38.772;2024-01-30T01:29:40;100868.56;;;-2.61;92.81
71948;BME280;63257;55.082;38.772;2024-01-30T01:32:05;100873.00;;;-2.52;92.99
71948;BME280;63257;55.082;38.772;2024-01-30T01:34:31;100885.22;;;-2.43;92.80
71948;BME280;63257;55.082;38.772;2024-01-30T01:36:57;100871.38;;;-2.45;92.83
71948;BME280;63257;55.082;38.772;2024-01-30T01:39:23;100878.34;;;-2.41;92.99
71948;BME280;63257;55.082;38.772;2024-01-30T01:41:49;100846.25;;;-2.56;92.72
71948;BME280;63257;55.082;38.772;2024-01-30T01:44:15;100841.97;;;-2.52;92.63
71948;BME280;63257;55.082;38.772;2024-01-30T01:46:41;100868.09;;;-2.35;92.47
71948;BME280;63257;55.082;38.772;2024-01-30T01:49:07;100849.78;;;-2.49;92.66
71948;BME280;63257;55.082;38.772;2024-01-30T01:51:34;100880.09;;;-2.39;92.94
71948;BME280;63257;55.082;38.772;2024-01-30T01:54:03;100878.34;;;-2.40;93.26
71948;BME280;63257;55.082;38.772;2024-01-30T01:56:30;100851.47;;;-2.51;92.94
71948;BME280;63257;55.082;38.772;2024-01-30T01:59:00;100881.84;;;-2.39;93.05
71948;BME280;63257;55.082;38.772;2024-01-30T02:01:27;100866.34;;;-2.36;93.04
71948;BME280;63257;55.082;38.772;2024-01-30T02:03:54;100868.84;;;-2.41;93.18
71948;BME280;63257;55.082;38.772;2024-01-30T02:06:20;100850.66;;;-2.48;92.94
71948;BME280;63257;55.082;38.772;2024-01-30T02:08:46;100872.38;;;-2.37;93.22
71948;BME280;63257;55.082;38.772;2024-01-30T02:11:11;100858.47;;;-2.45;93.54
71948;BME280;63257;55.082;38.772;2024-01-30T02:13:38;100868.84;;;-2.42;93.20
71948;BME280;63257;55.082;38.772;2024-01-30T02:16:04;100857.41;;;-2.58;93.68
71948;BME280;63257;55.082;38.772;2024-01-30T02:18:30;100864.50;;;-2.45;93.44
71948;BME280;63257;55.082;38.772;2024-01-30T02:21:17;100876.56;;;-2.45;93.44
71948;BME280;63257;55.082;38.772;2024-01-30T02:23:44;100861.81;;;-2.51;93.95
71948;BME280;63257;55.082;38.772;2024-01-30T02:26:12;100851.47;;;-2.52;94.05
71948;BME280;63257;55.082;38.772;2024-01-30T02:28:38;100859.19;;;-2.54;94.09
71948;BME280;63257;55.082;38.772;2024-01-30T02:31:05;100861.00;;;-2.50;93.98
71948;BME280;63257;55.082;38.772;2024-01-30T02:33:31;100828.84;;;-2.66;94.19
71948;BME280;63257;55.082;38.772;2024-01-30T02:35:57;100852.41;;;-2.47;94.00
71948;BME280;63257;55.082;38.772;2024-01-30T02:38:23;100855.88;;;-2.44;93.97
71948;BME280;63257;55.082;38.772;2024-01-30T02:40:49;100847.25;;;-2.47;94.01
71948;BME280;63257;55.082;38.772;2024-01-30T02:43:16;100816.78;;;-2.67;94.40
71948;BME280;63257;55.082;38.772;2024-01-30T02:45:43;100849.75;;;-2.50;94.54
71948;BME280;63257;55.082;38.772;2024-01-30T02:48:09;100830.59;;;-2.66;94.56
71948;BME280;63257;55.082;38.772;2024-01-30T02:50:35;100852.34;;;-2.49;95.00
71948;BME280;63257;55.082;38.772;2024-01-30T02:53:01;100853.13;;;-2.54;94.52
71948;BME280;63257;55.082;38.772;2024-01-30T02:55:27;100844.59;;;-2.50;94.87
71948;BME280;63257;55.082;38.772;2024-01-30T02:57:52;100822.84;;;-2.65;94.78
71948;BME280;63257;55.082;38.772;2024-01-30T03:00:19;100836.78;;;-2.53;94.86
71948;BME280;63257;55.082;38.772;2024-01-30T03:02:45;100844.59;;;-2.50;95.28
71948;BME280;63257;55.082;38.772;2024-01-30T03:05:11;100831.47;;;-2.64;95.17
71948;BME280;63257;55.082;38.772;2024-01-30T03:07:37;100863.56;;;-2.51;95.08
71948;BME280;63257;55.082;38.772;2024-01-30T03:10:06;100853.22;;;-2.51;94.87
71948;BME280;63257;55.082;38.772;2024-01-30T03:12:32;100854.94;;;-2.49;95.25
71948;BME280;63257;55.082;38.772;2024-01-30T03:14:58;100848.94;;;-2.48;94.69
71948;BME280;63257;55.082;38.772;2024-01-30T03:17:24;100855.88;;;-2.45;94.49
71948;BME280;63257;55.082;38.772;2024-01-30T03:19:51;100857.59;;;-2.46;94.97
71948;BME280;63257;55.082;38.772;2024-01-30T03:22:17;100868.00;;;-2.41;94.38
71948;BME280;63257;55.082;38.772;2024-01-30T03:24:43;100858.50;;;-2.42;94.29
71948;BME280;63257;55.082;38.772;2024-01-30T03:27:09;100864.63;;;-2.35;94.34
71948;BME280;63257;55.082;38.772;2024-01-30T03:29:35;100855.22;;;-2.32;94.38
71948;BME280;63257;55.082;38.772;2024-01-30T03:32:01;100840.50;;;-2.34;94.27
71948;BME280;63257;55.082;38.772;2024-01-30T03:34:29;100828.59;;;-2.22;93.85
71948;BME280;63257;55.082;38.772;2024-01-30T03:36:55;100842.41;;;-2.23;93.74
71948;BME280;63257;55.082;38.772;2024-01-30T03:39:21;100828.56;;;-2.25;93.76
71948;BME280;63257;55.082;38.772;2024-01-30T03:41:48;100853.78;;;-2.10;93.40
71948;BME280;63257;55.082;38.772;2024-01-30T03:44:14;100827.91;;;-2.08;93.57
71948;BME280;63257;55.082;38.772;2024-01-30T03:46:39;100825.34;;;-2.08;93.21
71948;BME280;63257;55.082;38.772;2024-01-30T03:49:05;100808.03;;;-2.14;92.92
71948;BME280;63257;55.082;38.772;2024-01-30T03:51:31;100836.69;;;-1.97;93.02
71948;BME280;63257;55.082;38.772;2024-01-30T03:53:57;100841.03;;;-1.93;92.81
71948;BME280;63257;55.082;38.772;2024-01-30T03:56:23;100832.28;;;-2.04;92.29
71948;BME280;63257;55.082;38.772;2024-01-30T03:58:50;100869.59;;;-1.88;92.63
71948;BME280;63257;55.082;38.772;2024-01-30T04:01:16;100864.31;;;-1.93;92.36
71948;BME280;63257;55.082;38.772;2024-01-30T04:03:42;100834.03;;;-2.03;92.50
71948;BME280;63257;55.082;38.772;2024-01-30T04:06:10;100882.53;;;-1.88;92.44
71948;BME280;63257;55.082;38.772;2024-01-30T04:08:37;100853.13;;;-1.92;92.54
71948;BME280;63257;55.082;38.772;2024-01-30T04:11:06;100869.66;;;-1.79;92.43
71948;BME280;63257;55.082;38.772;2024-01-30T04:13:32;100845.34;;;-1.95;92.55
71948;BME280;63257;55.082;38.772;2024-01-30T04:16:02;100878.38;;;-1.72;92.48
71948;BME280;63257;55.082;38.772;2024-01-30T04:18:29;100875.75;;;-1.75;92.54
71948;BME280;63257;55.082;38.772;2024-01-30T04:20:55;100872.34;;;-1.74;92.85
71948;BME280;63257;55.082;38.772;2024-01-30T04:23:21;100877.53;;;-1.71;92.62
71948;BME280;63257;55.082;38.772;2024-01-30T04:25:47;100867.19;;;-1.71;92.83
71948;BME280;63257;55.082;38.772;2024-01-30T04:28:13;100874.13;;;-1.68;92.79
71948;BME280;63257;55.082;38.772;2024-01-30T04:30:39;100881.88;;;-1.70;92.99
71948;BME280;63257;55.082;38.772;2024-01-30T04:33:05;100881.94;;;-1.64;92.74
71948;BME280;63257;55.082;38.772;2024-01-30T04:35:31;100870.72;;;-1.63;92.86
71948;BME280;63257;55.082;38.772;2024-01-30T04:37:57;100875.94;;;-1.61;92.45
71948;BME280;63257;55.082;38.772;2024-01-30T04:40:23;100860.41;;;-1.58;93.08
71948;BME280;63257;55.082;38.772;2024-01-30T04:42:49;100866.50;;;-1.55;92.96
71948;BME280;63257;55.082;38.772;2024-01-30T04:45:15;100868.25;;;-1.54;92.81
71948;BME280;63257;55.082;38.772;2024-01-30T04:47:40;100845.75;;;-1.61;92.82
71948;BME280;63257;55.082;38.772;2024-01-30T04:50:07;100868.22;;;-1.57;92.86
71948;BME280;63257;55.082;38.772;2024-01-30T04:52:35;100869.97;;;-1.54;92.98
71948;BME280;63257;55.082;38.772;2024-01-30T04:55:00;100894.22;;;-1.46;92.67
71948;BME280;63257;55.082;38.772;2024-01-30T04:57:26;100884.78;;;-1.42;93.05
71948;BME280;63257;55.082;38.772;2024-01-30T04:59:52;100885.63;;;-1.43;92.60
71948;BME280;63257;55.082;38.772;2024-01-30T05:02:18;100885.63;;;-1.42;92.42
71948;BME280;63257;55.082;38.772;2024-01-30T05:04:44;100871.81;;;-1.42;92.77
71948;BME280;63257;55.082;38.772;2024-01-30T05:07:10;100870.06;;;-1.43;92.39
71948;BME280;63257;55.082;38.772;2024-01-30T05:09:35;100865.72;;;-1.46;92.82
71948;BME280;63257;55.082;38.772;2024-01-30T05:12:01;100887.44;;;-1.36;93.00
71948;BME280;63257;55.082;38.772;2024-01-30T05:14:27;100875.38;;;-1.31;93.03
71948;BME280;63257;55.082;38.772;2024-01-30T05:16:53;100886.66;;;-1.26;92.71
71948;BME280;63257;55.082;38.772;2024-01-30T05:19:19;100850.28;;;-1.37;92.31
71948;BME280;63257;55.082;38.772;2024-01-30T05:21:46;100864.28;;;-1.22;92.58
71948;BME280;63257;55.082;38.772;2024-01-30T05:24:12;100883.25;;;-1.22;92.65
71948;BME280;63257;55.082;38.772;2024-01-30T05:26:38;100846.91;;;-1.31;92.73
71948;BME280;63257;55.082;38.772;2024-01-30T05:29:05;100854.72;;;-1.26;92.92
71948;BME280;63257;55.082;38.772;2024-01-30T05:31:31;100861.59;;;-1.28;92.69
71948;BME280;63257;55.082;38.772;2024-01-30T05:33:57;100884.22;;;-1.10;92.73
71948;BME280;63257;55.082;38.772;2024-01-30T05:36:22;100878.19;;;-1.11;92.67
71948;BME280;63257;55.082;38.772;2024-01-30T05:38:48;100852.16;;;-1.22;92.23
71948;BME280;63257;55.082;38.772;2024-01-30T05:41:14;100888.53;;;-1.12;92.96
71948;BME280;63257;55.082;38.772;2024-01-30T05:43:40;100880.81;;;-1.05;92.29
71948;BME280;63257;55.082;38.772;2024-01-30T05:46:06;100874.81;;;-1.00;92.51
71948;BME280;63257;55.082;38.772;2024-01-30T05:48:32;100890.41;;;-0.97;92.43
71948;BME280;63257;55.082;38.772;2024-01-30T05:50:58;100897.31;;;-0.98;92.53
71948;BME280;63257;55.082;38.772;2024-01-30T05:53:25;100888.75;;;-0.89;92.85
71948;BME280;63257;55.082;38.772;2024-01-30T05:55:51;100895.63;;;-0.91;92.22
71948;BME280;63257;55.082;38.772;2024-01-30T05:58:20;100898.22;;;-0.91;92.02
71948;BME280;63257;55.082;38.772;2024-01-30T06:00:46;100901.72;;;-0.88;92.50
71948;BME280;63257;55.082;38.772;2024-01-30T06:03:11;100913.84;;;-0.87;92.02
71948;BME280;63257;55.082;38.772;2024-01-30T06:05:37;100900.88;;;-0.85;92.74
71948;BME280;63257;55.082;38.772;2024-01-30T06:08:03;100911.28;;;-0.82;92.39
71948;BME280;63257;55.082;38.772;2024-01-30T06:10:29;100909.63;;;-0.75;92.43
71948;BME280;63257;55.082;38.772;2024-01-30T06:12:55;100911.31;;;-0.76;92.20
71948;BME280;63257;55.082;38.772;2024-01-30T06:15:20;100898.34;;;-0.79;92.33
71948;BME280;63257;55.082;38.772;2024-01-30T06:17:46;100878.44;;;-0.81;92.14
71948;BME280;63257;55.082;38.772;2024-01-30T06:20:12;100908.81;;;-0.63;91.93
71948;BME280;63257;55.082;38.772;2024-01-30T06:22:38;100880.19;;;-0.79;91.60
71948;BME280;63257;55.082;38.772;2024-01-30T06:25:04;100904.53;;;-0.64;91.94
71948;BME280;63257;55.082;38.772;2024-01-30T06:27:30;100903.63;;;-0.68;91.83
71948;BME280;63257;55.082;38.772;2024-01-30T06:29:56;100907.16;;;-0.57;91.91
71948;BME280;63257;55.082;38.772;2024-01-30T06:32:22;100912.34;;;-0.57;91.60
71948;BME280;63257;55.082;38.772;2024-01-30T06:34:48;100897.66;;;-0.56;91.82
71948;BME280;63257;55.082;38.772;2024-01-30T06:37:13;100905.47;;;-0.52;92.05
71948;BME280;63257;55.082;38.772;2024-01-30T06:39:39;100895.03;;;-0.59;91.36
71948;BME280;63257;55.082;38.772;2024-01-30T06:42:05;100916.69;;;-0.53;92.08
71948;BME280;63257;55.082;38.772;2024-01-30T06:44:31;100926.22;;;-0.50;92.20
71948;BME280;63257;55.082;38.772;2024-01-30T06:46:56;100888.97;;;-0.61;91.71
71948;BME280;63257;55.082;38.772;2024-01-30T06:49:22;100908.97;;;-0.48;91.84
71948;BME280;63257;55.082;38.772;2024-01-30T06:51:48;100899.41;;;-0.54;91.46
71948;BME280;63257;55.082;38.772;2024-01-30T06:54:14;100893.41;;;-0.48;90.92
71948;BME280;63257;55.082;38.772;2024-01-30T06:56:40;100882.97;;;-0.54;91.44
71948;BME280;63257;55.082;38.772;2024-01-30T06:59:06;100923.78;;;-0.33;91.67
71948;BME280;63257;55.082;38.772;2024-01-30T07:01:32;100915.97;;;-0.35;91.96
71948;BME280;63257;55.082;38.772;2024-01-30T07:03:58;100903.91;;;-0.28;91.95
71948;BME280;63257;55.082;38.772;2024-01-30T07:06:24;100889.16;;;-0.37;92.09
71948;BME280;63257;55.082;38.772;2024-01-30T07:08:50;100903.97;;;-0.22;92.28
71948;BME280;63257;55.082;38.772;2024-01-30T07:11:20;100880.53;;;-0.32;92.23
71948;BME280;63257;55.082;38.772;2024-01-30T07:13:48;100909.22;;;-0.12;91.62
71948;BME280;63257;55.082;38.772;2024-01-30T07:16:14;100910.06;;;-0.13;91.77
71948;BME280;63257;55.082;38.772;2024-01-30T07:18:40;100904.88;;;-0.13;91.73
71948;BME280;63257;55.082;38.772;2024-01-30T07:21:06;100907.53;;;-0.04;92.17
71948;BME280;63257;55.082;38.772;2024-01-30T07:23:32;100904.88;;;-0.10;91.55
71948;BME280;63257;55.082;38.772;2024-01-30T07:26:01;100908.31;;;-0.11;91.50
71948;BME280;63257;55.082;38.772;2024-01-30T07:28:27;100938.69;;;-0.04;91.64
71948;BME280;63257;55.082;38.772;2024-01-30T07:30:52;100915.28;;;-0.07;92.14
71948;BME280;63257;55.082;38.772;2024-01-30T07:33:18;100925.78;;;0.10;92.00
71948;BME280;63257;55.082;38.772;2024-01-30T07:35:45;100940.50;;;0.15;91.63
71948;BME280;63257;55.082;38.772;2024-01-30T07:38:11;100939.69;;;0.24;91.48
71948;BME280;63257;55.082;38.772;2024-01-30T07:40:37;100919.75;;;0.22;90.57
71948;BME280;63257;55.082;38.772;2024-01-30T07:43:03;100914.59;;;0.25;90.66
71948;BME280;63257;55.082;38.772;2024-01-30T07:45:29;100923.28;;;0.35;90.14
71948;BME280;63257;55.082;38.772;2024-01-30T07:47:59;100909.47;;;0.48;89.40
71948;BME280;63257;55.082;38.772;2024-01-30T07:50:25;100924.22;;;0.52;90.16
71948;BME280;63257;55.082;38.772;2024-01-30T07:52:51;100930.28;;;0.53;89.98
71948;BME280;63257;55.082;38.772;2024-01-30T07:55:20;100927.69;;;0.56;90.05
71948;BME280;63257;55.082;38.772;2024-01-30T07:57:52;100935.50;;;0.56;89.64
71948;BME280;63257;55.082;38.772;2024-01-30T08:00:20;100922.50;;;0.60;89.26
71948;BME280;63257;55.082;38.772;2024-01-30T08:02:46;100918.19;;;0.59;89.44
71948;BME280;63257;55.082;38.772;2024-01-30T08:05:12;100923.38;;;0.58;89.33
71948;BME280;63257;55.082;38.772;2024-01-30T08:07:37;100928.63;;;0.75;88.87
71948;BME280;63257;55.082;38.772;2024-01-30T08:10:03;100926.03;;;0.72;88.62
71948;BME280;63257;55.082;38.772;2024-01-30T08:12:29;100926.88;;;0.66;88.41
71948;BME280;63257;55.082;38.772;2024-01-30T08:14:55;100930.38;;;0.85;88.39
71948;BME280;63257;55.082;38.772;2024-01-30T08:17:20;100917.41;;;0.96;87.16
71948;BME280;63257;55.082;38.772;2024-01-30T08:19:46;100926.94;;;0.97;87.07
71948;BME280;63257;55.082;38.772;2024-01-30T08:22:12;100933.03;;;1.00;86.87
71948;BME280;63257;55.082;38.772;2024-01-30T08:24:38;100910.50;;;0.95;87.58
71948;BME280;63257;55.082;38.772;2024-01-30T08:27:06;100919.16;;;1.05;86.78
71948;BME280;63257;55.082;38.772;2024-01-30T08:29:35;100922.59;;;0.91;86.90
71948;BME280;63257;55.082;38.772;2024-01-30T08:32:01;100913.94;;;0.92;87.59
71948;BME280;63257;55.082;38.772;2024-01-30T08:34:28;100910.47;;;1.01;86.87
71948;BME280;63257;55.082;38.772;2024-01-30T08:36:53;100887.94;;;0.95;86.61
71948;BME280;63257;55.082;38.772;2024-01-30T08:39:19;100908.75;;;1.11;86.36
71948;BME280;63257;55.082;38.772;2024-01-30T08:41:45;100926.09;;;1.02;86.93
71948;BME280;63257;55.082;38.772;2024-01-30T08:44:11;100874.06;;;0.93;86.40
71948;BME280;63257;55.082;38.772;2024-01-30T08:46:37;100873.22;;;0.99;86.74
71948;BME280;63257;55.082;38.772;2024-01-30T08:49:03;100885.38;;;1.08;85.65
71948;BME280;63257;55.082;38.772;2024-01-30T08:51:31;100894.03;;;1.11;85.49
71948;BME280;63257;55.082;38.772;2024-01-30T08:53:57;100884.50;;;1.24;85.61
71948;BME280;63257;55.082;38.772;2024-01-30T08:56:23;100901.84;;;1.27;85.78
71948;BME280;63257;55.082;38.772;2024-01-30T08:58:49;100903.59;;;1.32;85.69
71948;BME280;63257;55.082;38.772;2024-01-30T09:01:15;100904.44;;;1.33;85.05
71948;BME280;63257;55.082;38.772;2024-01-30T09:03:41;100904.44;;;1.19;85.39
71948;BME280;63257;55.082;38.772;2024-01-30T09:06:12;100905.28;;;1.18;85.39
71948;BME280;63257;55.082;38.772;2024-01-30T09:08:38;100917.44;;;1.33;85.47
71948;BME280;63257;55.082;38.772;2024-01-30T09:11:14;100896.66;;;1.25;85.05
71948;BME280;63257;55.082;38.772;2024-01-30T09:13:41;100918.31;;;1.35;85.20
71948;BME280;63257;55.082;38.772;2024-01-30T09:16:07;100914.88;;;1.36;84.69
71948;BME280;63257;55.082;38.772;2024-01-30T09:18:33;100891.41;;;1.22;85.26
71948;BME280;63257;55.082;38.772;2024-01-30T09:20:59;100920.06;;;1.30;85.17
71948;BME280;63257;55.082;38.772;2024-01-30T09:23:27;100913.13;;;1.23;85.82
71948;BME280;63257;55.082;38.772;2024-01-30T09:25:53;100900.13;;;1.32;85.73
71948;BME280;63257;55.082;38.772;2024-01-30T09:28:20;100932.19;;;1.37;85.35
71948;BME280;63257;55.082;38.772;2024-01-30T09:30:45;100880.16;;;1.12;84.68
71948;BME280;63257;55.082;38.772;2024-01-30T09:33:11;100913.13;;;1.47;84.70
71948;BME280;63257;55.082;38.772;2024-01-30T09:35:37;100914.88;;;1.36;85.31
71948;BME280;63257;55.082;38.772;2024-01-30T09:38:03;100920.06;;;1.42;84.62
71948;BME280;63257;55.082;38.772;2024-01-30T09:40:29;100898.38;;;1.34;84.89
71948;BME280;63257;55.082;38.772;2024-01-30T09:42:55;100902.72;;;1.33;84.99
71948;BME280;63257;55.082;38.772;2024-01-30T09:45:25;100915.72;;;1.44;85.15
71948;BME280;63257;55.082;38.772;2024-01-30T09:47:52;100912.25;;;1.44;84.57
71948;BME280;63257;55.082;38.772;2024-01-30T09:50:18;100907.06;;;1.39;85.25
71948;BME280;63257;55.082;38.772;2024-01-30T09:52:45;100910.53;;;1.33;85.25
71948;BME280;63257;55.082;38.772;2024-01-30T09:55:12;100893.19;;;1.28;85.33
71948;BME280;63257;55.082;38.772;2024-01-30T09:57:38;100906.19;;;1.40;85.84
71948;BME280;63257;55.082;38.772;2024-01-30T10:00:04;100896.63;;;1.28;85.26
71948;BME280;63257;55.082;38.772;2024-01-30T10:02:39;100913.09;;;1.29;86.09
71948;BME280;63257;55.082;38.772;2024-01-30T10:05:05;100882.75;;;1.23;85.30
71948;BME280;63257;55.082;38.772;2024-01-30T10:07:31;100904.44;;;1.50;84.97
71948;BME280;63257;55.082;38.772;2024-01-30T10:09:57;100920.91;;;1.55;84.55
71948;BME280;63257;55.082;38.772;2024-01-30T10:12:26;100891.44;;;1.33;84.81
71948;BME280;63257;55.082;38.772;2024-01-30T10:14:52;100905.31;;;1.61;84.71
71948;BME280;63257;55.082;38.772;2024-01-30T10:17:18;100915.69;;;1.74;84.43
71948;BME280;63257;55.082;38.772;2024-01-30T10:19:47;100884.47;;;1.74;83.86
71948;BME280;63257;55.082;38.772;2024-01-30T10:22:13;100907.84;;;1.89;82.99
71948;BME280;63257;55.082;38.772;2024-01-30T10:24:39;100905.28;;;1.84;82.84
71948;BME280;63257;55.082;38.772;2024-01-30T10:27:06;100909.63;;;1.68;83.56
71948;BME280;63257;55.082;38.772;2024-01-30T10:29:32;100912.25;;;1.64;83.73
71948;BME280;63257;55.082;38.772;2024-01-30T10:34:25;100899.22;;;1.76;83.73
71948;BME280;63257;55.082;38.772;2024-01-30T10:37:07;100910.47;;;1.88;83.12
71948;BME280;63257;55.082;38.772;2024-01-30T10:39:41;100907.00;;;1.87;83.44
71948;BME280;63257;55.082;38.772;2024-01-30T10:42:20;100919.13;;;1.86;82.85
71948;BME280;63257;55.082;38.772;2024-01-30T10:47:27;100906.09;;;1.97;82.71
71948;BME280;63257;55.082;38.772;2024-01-30T10:49:57;100900.91;;;1.91;82.95
71948;BME280;63257;55.082;38.772;2024-01-30T10:52:24;100909.59;;;1.98;82.24
71948;BME280;63257;55.082;38.772;2024-01-30T10:54:55;100915.63;;;2.00;82.49
71948;BME280;63257;55.082;38.772;2024-01-30T10:57:25;100926.91;;;2.00;82.60
71948;BME280;63257;55.082;38.772;2024-01-30T10:59:54;100910.47;;;1.78;83.34
71948;BME280;63257;55.082;38.772;2024-01-30T11:02:21;100896.59;;;1.70;83.21
71948;BME280;63257;55.082;38.772;2024-01-30T11:04:50;100908.75;;;1.73;83.10
71948;BME280;63257;55.082;38.772;2024-01-30T11:07:25;100922.63;;;1.82;83.44
71948;BME280;63257;55.082;38.772;2024-01-30T11:10:03;100930.41;;;1.93;83.18
71948;BME280;63257;55.082;38.772;2024-01-30T11:12:37;100913.09;;;1.81;83.25
71948;BME280;63257;55.082;38.772;2024-01-30T11:15:07;100923.50;;;1.84;83.23
71948;BME280;63257;55.082;38.772;2024-01-30T11:20:20;100918.28;;;1.83;83.75
71948;BME280;63257;55.082;38.772;2024-01-30T11:22:47;100916.56;;;1.77;83.31
71948;BME280;63257;55.082;38.772;2024-01-30T11:25:17;100914.81;;;1.87;83.76
71948;BME280;63257;55.082;38.772;2024-01-30T11:27:45;100913.91;;;1.97;83.62
71948;BME280;63257;55.082;38.772;2024-01-30T11:33:09;100932.16;;;2.02;83.22
71948;BME280;63257;55.082;38.772;2024-01-30T11:35:41;100913.03;;;2.09;82.63
71948;BME280;63257;55.082;38.772;2024-01-30T11:38:09;100935.59;;;2.02;82.59
71948;BME280;63257;55.082;38.772;2024-01-30T11:40:37;100913.00;;;2.04;82.81
71948;BME280;63257;55.082;38.772;2024-01-30T11:43:05;100915.63;;;2.08;82.91
71948;BME280;63257;55.082;38.772;2024-01-30T11:45:32;100912.97;;;2.15;82.74
71948;BME280;63257;55.082;38.772;2024-01-30T11:47:59;100926.91;;;2.10;82.63
71948;BME280;63257;55.082;38.772;2024-01-30T11:50:30;100913.91;;;2.00;82.79
71948;BME280;63257;55.082;38.772;2024-01-30T11:52:56;100913.88;;;2.10;82.48
71948;BME280;63257;55.082;38.772;2024-01-30T11:55:24;100906.94;;;2.10;81.99
71948;BME280;63257;55.082;38.772;2024-01-30T11:57:50;100919.94;;;2.09;82.16
71948;BME280;63257;55.082;38.772;2024-01-30T12:00:17;100919.97;;;2.10;82.20
71948;BME280;63257;55.082;38.772;2024-01-30T12:02:48;100926.03;;;2.03;82.30
71948;BME280;63257;55.082;38.772;2024-01-30T12:05:14;100916.44;;;2.20;82.37
71948;BME280;63257;55.082;38.772;2024-01-30T12:07:40;100906.06;;;2.08;81.88
71948;BME280;63257;55.082;38.772;2024-01-30T12:10:08;100914.72;;;2.15;81.91
71948;BME280;63257;55.082;38.772;2024-01-30T12:12:35;100919.06;;;2.19;82.48
71948;BME280;63257;55.082;38.772;2024-01-30T12:15:01;100914.72;;;2.16;82.43
71948;BME280;63257;55.082;38.772;2024-01-30T12:17:30;100912.19;;;1.99;82.35
71948;BME280;63257;55.082;38.772;2024-01-30T12:20:10;100887.03;;;1.89;82.04
71948;BME280;63257;55.082;38.772;2024-01-30T12:22:43;100924.34;;;2.02;82.60
71948;BME280;63257;55.082;38.772;2024-01-30T12:25:10;100942.53;;;2.07;82.99
71948;BME280;63257;55.082;38.772;2024-01-30T12:27:36;100920.88;;;1.94;83.00
71948;BME280;63257;55.082;38.772;2024-01-30T12:30:06;100942.56;;;2.05;82.67
71948;BME280;63257;55.082;38.772;2024-01-30T12:32:36;100936.47;;;2.00;82.81
71948;BME280;63257;55.082;38.772;2024-01-30T12:35:03;100950.31;;;2.19;83.22
71948;BME280;63257;55.082;38.772;2024-01-30T12:37:30;100948.59;;;2.07;83.01
71948;BME280;63257;55.082;38.772;2024-01-30T12:39:56;100956.41;;;2.07;82.92
71948;BME280;63257;55.082;38.772;2024-01-30T12:42:22;100951.19;;;2.19;82.77
71948;BME280;63257;55.082;38.772;2024-01-30T12:44:49;100966.84;;;2.13;82.72
71948;BME280;63257;55.082;38.772;2024-01-30T12:47:15;100968.59;;;2.07;83.30
71948;BME280;63257;55.082;38.772;2024-01-30T12:49:43;100941.72;;;1.94;83.33
71948;BME280;63257;55.082;38.772;2024-01-30T12:52:15;100953.84;;;1.82;83.31